sensor_id;sensor_type;location;lat;lon;timestamp;pressure;altitude;pressure_sealevel;temperature;humidity
20043;BME280;10182;52.896;6.496;2023-06-04T00:00:39;102203.16;;;10.59;100.00
20043;BME280;10182;52.896;6.496;2023-06-04T00:05:42;102201.31;;;10.61;100.00
20043;BME280;10182;52.896;6.496;2023-06-04T00:10:44;102205.03;;;10.54;100.00
20043;BME280;10182;52.896;6.496;2023-06-04T00:15:46;102206.06;;;10.47;100.00
20043;BME280;10182;52.896;6.496;2023-06-04T00:20:49;102213.19;;;10.45;100.00
20043;BME280;10182;52.896;6.496;2023-06-04T00:25:50;102202.84;;;10.32;100.00
20043;BME280;10182;52.896;6.496;2023-06-04T00:30:52;102204.84;;;10.21;100.00
20043;BME280;10182;52.896;6.496;2023-06-04T00:35:55;102206.03;;;10.08;100.00
20043;BME280;10182;52.896;6.496;2023-06-04T00:40:57;102213.41;;;9.92;100.00
20043;BME280;10182;52.896;6.496;2023-06-04T00:45:58;102206.56;;;9.80;100.00
20043;BME280;10182;52.896;6.496;2023-06-04T00:51:02;102203.44;;;9.61;100.00
20043;BME280;10182;52.896;6.496;2023-06-04T00:56:05;102205.19;;;9.60;100.00
20043;BME280;10182;52.896;6.496;2023-06-04T01:01:10;102200.84;;;9.58;100.00
20043;BME280;10182;52.896;6.496;2023-06-04T01:06:21;102209.88;;;9.47;100.00
20043;BME280;10182;52.896;6.496;2023-06-04T01:11:33;102220.34;;;9.52;100.00
20043;BME280;10182;52.896;6.496;2023-06-04T01:16:39;102216.13;;;9.43;100.00
20043;BME280;10182;52.896;6.496;2023-06-04T01:21:48;102212.78;;;9.34;100.00
20043;BME280;10182;52.896;6.496;2023-06-04T01:26:52;102208.59;;;9.20;100.00
20043;BME280;10182;52.896;6.496;2023-06-04T01:31:56;102222.00;;;9.09;100.00
20043;BME280;10182;52.896;6.496;2023-06-04T01:37:00;102221.84;;;9.19;100.00
20043;BME280;10182;52.896;6.496;2023-06-04T01:42:03;102216.69;;;9.11;100.00
20043;BME280;10182;52.896;6.496;2023-06-04T01:47:04;102220.25;;;9.08;100.00
20043;BME280;10182;52.896;6.496;2023-06-04T01:52:08;102210.69;;;9.01;100.00
20043;BME280;10182;52.896;6.496;2023-06-04T01:57:11;102209.78;;;9.02;100.00
20043;BME280;10182;52.896;6.496;2023-06-04T02:02:13;102221.31;;;8.98;100.00
20043;BME280;10182;52.896;6.496;2023-06-04T02:07:16;102215.25;;;8.90;100.00
20043;BME280;10182;52.896;6.496;2023-06-04T02:12:20;102222.41;;;8.85;100.00
20043;BME280;10182;52.896;6.496;2023-06-04T02:17:22;102218.94;;;8.79;100.00
20043;BME280;10182;52.896;6.496;2023-06-04T02:22:25;102218.13;;;8.76;100.00
20043;BME280;10182;52.896;6.496;2023-06-04T02:27:27;102217.16;;;8.80;100.00
20043;BME280;10182;52.896;6.496;2023-06-04T02:32:29;102207.59;;;8.73;100.00
20043;BME280;10182;52.896;6.496;2023-06-04T02:37:32;102215.56;;;8.71;100.00
20043;BME280;10182;52.896;6.496;2023-06-04T02:42:34;102220.13;;;8.61;100.00
20043;BME280;10182;52.896;6.496;2023-06-04T02:47:35;102218.50;;;8.51;100.00
20043;BME280;10182;52.896;6.496;2023-06-04T02:52:38;102220.19;;;8.55;100.00
20043;BME280;10182;52.896;6.496;2023-06-04T02:57:41;102216.59;;;8.62;100.00
20043;BME280;10182;52.896;6.496;2023-06-04T03:02:45;102215.63;;;8.65;100.00
20043;BME280;10182;52.896;6.496;2023-06-04T03:07:48;102222.69;;;8.66;100.00
20043;BME280;10182;52.896;6.496;2023-06-04T03:12:50;102219.22;;;8.61;100.00
20043;BME280;10182;52.896;6.496;2023-06-04T03:17:52;102221.88;;;8.62;100.00
20043;BME280;10182;52.896;6.496;2023-06-04T03:22:55;102218.44;;;8.54;100.00
20043;BME280;10182;52.896;6.496;2023-06-04T03:27:58;102206.97;;;8.55;100.00
20043;BME280;10182;52.896;6.496;2023-06-04T03:32:59;102214.03;;;8.55;100.00
20043;BME280;10182;52.896;6.496;2023-06-04T03:38:03;102207.75;;;8.62;100.00
20043;BME280;10182;52.896;6.496;2023-06-04T03:43:05;102206.81;;;8.66;100.00
20043;BME280;10182;52.896;6.496;2023-06-04T03:48:07;102214.00;;;8.58;100.00
20043;BME280;10182;52.896;6.496;2023-06-04T03:53:10;102216.50;;;8.67;100.00
20043;BME280;10182;52.896;6.496;2023-06-04T03:58:12;102217.34;;;8.71;100.00
20043;BME280;10182;52.896;6.496;2023-06-04T04:03:15;102219.88;;;8.77;100.00
20043;BME280;10182;52.896;6.496;2023-06-04T04:08:18;102217.72;;;9.01;100.00
20043;BME280;10182;52.896;6.496;2023-06-04T04:13:21;102218.25;;;9.23;100.00
20043;BME280;10182;52.896;6.496;2023-06-04T04:18:23;102215.41;;;9.34;100.00
20043;BME280;10182;52.896;6.496;2023-06-04T04:23:26;102217.00;;;9.42;100.00
20043;BME280;10182;52.896;6.496;2023-06-04T04:28:28;102216.91;;;9.47;100.00
20043;BME280;10182;52.896;6.496;2023-06-04T04:33:30;102210.63;;;9.53;100.00
20043;BME280;10182;52.896;6.496;2023-06-04T04:38:38;102217.84;;;9.91;100.00
20043;BME280;10182;52.896;6.496;2023-06-04T04:43:40;102211.31;;;10.08;100.00
20043;BME280;10182;52.896;6.496;2023-06-04T04:48:42;102215.22;;;10.30;100.00
20043;BME280;10182;52.896;6.496;2023-06-04T04:53:45;102211.22;;;10.53;100.00
20043;BME280;10182;52.896;6.496;2023-06-04T04:58:46;102202.06;;;10.68;100.00
20043;BME280;10182;52.896;6.496;2023-06-04T05:03:48;102207.81;;;10.86;100.00
20043;BME280;10182;52.896;6.496;2023-06-04T05:08:52;102212.66;;;11.04;100.00
20043;BME280;10182;52.896;6.496;2023-06-04T05:13:53;102213.00;;;11.25;100.00
20043;BME280;10182;52.896;6.496;2023-06-04T05:18:56;102223.38;;;11.34;100.00
20043;BME280;10182;52.896;6.496;2023-06-04T05:23:59;102223.81;;;11.51;100.00
20043;BME280;10182;52.896;6.496;2023-06-04T05:29:01;102220.09;;;11.57;100.00
20043;BME280;10182;52.896;6.496;2023-06-04T05:34:04;102226.69;;;11.75;100.00
20043;BME280;10182;52.896;6.496;2023-06-04T05:39:07;102224.41;;;11.94;100.00
20043;BME280;10182;52.896;6.496;2023-06-04T05:44:09;102225.84;;;12.06;100.00
20043;BME280;10182;52.896;6.496;2023-06-04T05:49:11;102219.31;;;12.16;100.00
20043;BME280;10182;52.896;6.496;2023-06-04T05:54:14;102211.19;;;12.23;100.00
20043;BME280;10182;52.896;6.496;2023-06-04T05:59:16;102219.78;;;12.31;100.00
20043;BME280;10182;52.896;6.496;2023-06-04T06:04:17;102215.28;;;12.34;100.00
20043;BME280;10182;52.896;6.496;2023-06-04T06:09:20;102220.16;;;12.48;100.00
20043;BME280;10182;52.896;6.496;2023-06-04T06:14:22;102218.25;;;12.52;100.00
20043;BME280;10182;52.896;6.496;2023-06-04T06:19:24;102220.16;;;12.48;100.00
20043;BME280;10182;52.896;6.496;2023-06-04T06:24:28;102218.06;;;12.58;100.00
20043;BME280;10182;52.896;6.496;2023-06-04T06:29:29;102224.44;;;12.81;100.00
20043;BME280;10182;52.896;6.496;2023-06-04T06:34:31;102234.91;;;12.85;100.00
20043;BME280;10182;52.896;6.496;2023-06-04T06:39:34;102223.06;;;12.96;100.00
20043;BME280;10182;52.896;6.496;2023-06-04T06:44:36;102224.31;;;13.12;100.00
20043;BME280;10182;52.896;6.496;2023-06-04T06:49:37;102238.22;;;13.20;100.00
20043;BME280;10182;52.896;6.496;2023-06-04T06:54:40;102237.66;;;13.37;100.00
20043;BME280;10182;52.896;6.496;2023-06-04T06:59:42;102234.94;;;13.39;100.00
20043;BME280;10182;52.896;6.496;2023-06-04T07:04:44;102239.63;;;13.58;100.00
20043;BME280;10182;52.896;6.496;2023-06-04T07:09:47;102238.41;;;13.66;100.00
20043;BME280;10182;52.896;6.496;2023-06-04T07:14:48;102236.06;;;13.82;100.00
20043;BME280;10182;52.896;6.496;2023-06-04T07:19:50;102239.78;;;14.02;100.00
20043;BME280;10182;52.896;6.496;2023-06-04T07:24:53;102242.13;;;14.33;100.00
20043;BME280;10182;52.896;6.496;2023-06-04T07:29:55;102235.59;;;14.42;100.00
20043;BME280;10182;52.896;6.496;2023-06-04T07:34:57;102235.50;;;14.67;100.00
20043;BME280;10182;52.896;6.496;2023-06-04T07:40:00;102237.06;;;14.73;100.00
20043;BME280;10182;52.896;6.496;2023-06-04T07:45:01;102236.25;;;14.93;100.00
20043;BME280;10182;52.896;6.496;2023-06-04T07:50:04;102235.41;;;15.13;100.00
20043;BME280;10182;52.896;6.496;2023-06-04T07:55:08;102231.28;;;15.27;100.00
20043;BME280;10182;52.896;6.496;2023-06-04T08:00:11;102237.44;;;15.49;100.00
20043;BME280;10182;52.896;6.496;2023-06-04T08:05:13;102243.09;;;15.62;100.00
20043;BME280;10182;52.896;6.496;2023-06-04T08:10:16;102237.81;;;15.81;100.00
20043;BME280;10182;52.896;6.496;2023-06-04T08:15:18;102240.38;;;15.84;100.00
20043;BME280;10182;52.896;6.496;2023-06-04T08:20:20;102247.75;;;15.98;100.00
20043;BME280;10182;52.896;6.496;2023-06-04T08:25:23;102252.28;;;15.96;100.00
20043;BME280;10182;52.896;6.496;2023-06-04T08:30:25;102253.97;;;16.18;100.00
20043;BME280;10182;52.896;6.496;2023-06-04T08:35:27;102246.78;;;16.39;100.00
20043;BME280;10182;52.896;6.496;2023-06-04T08:40:31;102237.94;;;16.56;100.00
20043;BME280;10182;52.896;6.496;2023-06-04T08:45:33;102243.00;;;16.62;100.00
20043;BME280;10182;52.896;6.496;2023-06-04T08:50:42;102235.06;;;16.97;100.00
20043;BME280;10182;52.896;6.496;2023-06-04T08:55:53;102242.25;;;17.14;100.00
20043;BME280;10182;52.896;6.496;2023-06-04T09:00:54;102235.16;;;17.13;100.00
20043;BME280;10182;52.896;6.496;2023-06-04T09:05:57;102240.91;;;17.23;100.00
20043;BME280;10182;52.896;6.496;2023-06-04T09:11:01;102243.03;;;17.34;100.00
20043;BME280;10182;52.896;6.496;2023-06-04T09:16:06;102238.34;;;17.55;100.00
20043;BME280;10182;52.896;6.496;2023-06-04T09:21:08;102237.13;;;17.78;100.00
20043;BME280;10182;52.896;6.496;2023-06-04T09:26:12;102239.50;;;17.84;100.00
20043;BME280;10182;52.896;6.496;2023-06-04T09:31:14;102234.91;;;17.86;100.00
20043;BME280;10182;52.896;6.496;2023-06-04T09:36:16;102245.63;;;18.04;100.00
20043;BME280;10182;52.896;6.496;2023-06-04T09:41:20;102249.31;;;18.01;100.00
20043;BME280;10182;52.896;6.496;2023-06-04T09:46:22;102243.66;;;18.07;89.81
20043;BME280;10182;52.896;6.496;2023-06-04T09:51:24;102247.91;;;18.27;83.93
20043;BME280;10182;52.896;6.496;2023-06-04T09:56:28;102245.75;;;18.50;78.82
20043;BME280;10182;52.896;6.496;2023-06-04T10:01:30;102241.25;;;18.35;76.54
20043;BME280;10182;52.896;6.496;2023-06-04T10:06:33;102253.44;;;18.40;75.56
20043;BME280;10182;52.896;6.496;2023-06-04T10:11:40;102256.81;;;18.60;69.85
20043;BME280;10182;52.896;6.496;2023-06-04T10:16:42;102251.09;;;18.50;66.79
20043;BME280;10182;52.896;6.496;2023-06-04T10:21:45;102243.50;;;18.58;59.91
20043;BME280;10182;52.896;6.496;2023-06-04T10:26:48;102248.25;;;18.69;70.96
20043;BME280;10182;52.896;6.496;2023-06-04T10:31:53;102249.47;;;18.80;73.61
20043;BME280;10182;52.896;6.496;2023-06-04T10:36:55;102246.28;;;19.19;71.33
20043;BME280;10182;52.896;6.496;2023-06-04T10:42:00;102247.97;;;19.06;76.79
20043;BME280;10182;52.896;6.496;2023-06-04T10:47:03;102261.69;;;19.46;69.80
20043;BME280;10182;52.896;6.496;2023-06-04T10:52:10;102271.81;;;19.26;61.10
20043;BME280;10182;52.896;6.496;2023-06-04T10:57:14;102266.97;;;19.48;65.02
20043;BME280;10182;52.896;6.496;2023-06-04T11:02:16;102261.81;;;19.28;70.27
20043;BME280;10182;52.896;6.496;2023-06-04T11:07:17;102262.88;;;19.56;75.46
20043;BME280;10182;52.896;6.496;2023-06-04T11:12:20;102247.09;;;19.50;77.04
20043;BME280;10182;52.896;6.496;2023-06-04T11:17:22;102247.25;;;19.33;69.98
20043;BME280;10182;52.896;6.496;2023-06-04T11:22:24;102241.03;;;19.32;69.75
20043;BME280;10182;52.896;6.496;2023-06-04T11:27:27;102238.38;;;19.61;78.37
20043;BME280;10182;52.896;6.496;2023-06-04T11:32:29;102239.81;;;19.67;69.08
20043;BME280;10182;52.896;6.496;2023-06-04T11:37:30;102242.16;;;19.73;61.01
20043;BME280;10182;52.896;6.496;2023-06-04T11:42:39;102234.59;;;20.08;67.47
20043;BME280;10182;52.896;6.496;2023-06-04T11:47:45;102239.16;;;19.77;63.89
20043;BME280;10182;52.896;6.496;2023-06-04T11:52:47;102234.88;;;19.89;66.18
20043;BME280;10182;52.896;6.496;2023-06-04T11:57:50;102230.25;;;20.06;63.29
20043;BME280;10182;52.896;6.496;2023-06-04T12:02:53;102228.53;;;20.05;59.42
20043;BME280;10182;52.896;6.496;2023-06-04T12:08:04;102212.22;;;20.50;60.87
20043;BME280;10182;52.896;6.496;2023-06-04T12:13:07;102220.41;;;20.34;62.66
20043;BME280;10182;52.896;6.496;2023-06-04T12:18:09;102220.63;;;20.31;61.68
20043;BME280;10182;52.896;6.496;2023-06-04T12:23:19;102214.88;;;20.22;69.78
20043;BME280;10182;52.896;6.496;2023-06-04T12:28:22;102212.19;;;20.08;71.35
20043;BME280;10182;52.896;6.496;2023-06-04T12:33:24;102215.66;;;20.10;74.66
20043;BME280;10182;52.896;6.496;2023-06-04T12:38:26;102222.84;;;20.24;68.23
20043;BME280;10182;52.896;6.496;2023-06-04T12:43:29;102205.34;;;20.58;75.49
20043;BME280;10182;52.896;6.496;2023-06-04T12:48:33;102206.88;;;20.90;72.61
20043;BME280;10182;52.896;6.496;2023-06-04T12:53:35;102211.06;;;20.81;68.68
20043;BME280;10182;52.896;6.496;2023-06-04T12:58:40;102211.19;;;20.65;69.63
20043;BME280;10182;52.896;6.496;2023-06-04T13:03:43;102207.72;;;20.77;70.91
20043;BME280;10182;52.896;6.496;2023-06-04T13:08:52;102208.03;;;20.73;75.21
20043;BME280;10182;52.896;6.496;2023-06-04T13:13:55;102210.22;;;20.81;69.11
20043;BME280;10182;52.896;6.496;2023-06-04T13:18:57;102207.97;;;20.87;69.85
20043;BME280;10182;52.896;6.496;2023-06-04T13:23:59;102201.66;;;21.14;71.61
20043;BME280;10182;52.896;6.496;2023-06-04T13:29:02;102204.03;;;21.06;69.32
20043;BME280;10182;52.896;6.496;2023-06-04T13:34:03;102212.59;;;20.98;79.36
20043;BME280;10182;52.896;6.496;2023-06-04T13:39:05;102198.72;;;20.64;72.20
20043;BME280;10182;52.896;6.496;2023-06-04T13:44:08;102201.41;;;20.91;76.46
20043;BME280;10182;52.896;6.496;2023-06-04T13:49:10;102199.47;;;20.93;76.74
20043;BME280;10182;52.896;6.496;2023-06-04T13:54:12;102205.63;;;20.95;75.32
20043;BME280;10182;52.896;6.496;2023-06-04T13:59:15;102195.94;;;20.93;73.98
20043;BME280;10182;52.896;6.496;2023-06-04T14:04:16;102196.03;;;20.91;76.98
20043;BME280;10182;52.896;6.496;2023-06-04T14:09:19;102189.81;;;21.04;78.99
20043;BME280;10182;52.896;6.496;2023-06-04T14:14:22;102194.50;;;20.87;81.12
20043;BME280;10182;52.896;6.496;2023-06-04T14:19:24;102194.94;;;20.94;81.45
20043;BME280;10182;52.896;6.496;2023-06-04T14:24:25;102184.19;;;21.07;83.50
20043;BME280;10182;52.896;6.496;2023-06-04T14:29:29;102186.16;;;21.18;79.69
20043;BME280;10182;52.896;6.496;2023-06-04T14:34:30;102177.13;;;21.19;78.74
20043;BME280;10182;52.896;6.496;2023-06-04T14:39:33;102187.03;;;21.31;74.09
20043;BME280;10182;52.896;6.496;2023-06-04T14:44:38;102185.78;;;20.96;75.99
20043;BME280;10182;52.896;6.496;2023-06-04T14:49:39;102187.66;;;20.69;78.69
20043;BME280;10182;52.896;6.496;2023-06-04T14:54:43;102186.50;;;20.86;83.68
20043;BME280;10182;52.896;6.496;2023-06-04T14:59:48;102186.06;;;21.19;91.06
20043;BME280;10182;52.896;6.496;2023-06-04T15:04:50;102186.09;;;20.79;87.18
20043;BME280;10182;52.896;6.496;2023-06-04T15:09:51;102179.44;;;20.98;80.20
20043;BME280;10182;52.896;6.496;2023-06-04T15:14:54;102177.84;;;21.08;79.08
20043;BME280;10182;52.896;6.496;2023-06-04T15:19:56;102176.56;;;20.46;88.11
20043;BME280;10182;52.896;6.496;2023-06-04T15:24:58;102176.47;;;20.48;95.79
20043;BME280;10182;52.896;6.496;2023-06-04T15:30:02;102186.38;;;19.91;98.98
20043;BME280;10182;52.896;6.496;2023-06-04T15:35:04;102187.72;;;19.98;100.00
20043;BME280;10182;52.896;6.496;2023-06-04T15:40:07;102177.38;;;19.92;100.00
20043;BME280;10182;52.896;6.496;2023-06-04T15:45:12;102185.13;;;19.68;100.00
20043;BME280;10182;52.896;6.496;2023-06-04T15:50:13;102186.88;;;19.83;100.00
20043;BME280;10182;52.896;6.496;2023-06-04T15:55:15;102194.81;;;19.70;100.00
20043;BME280;10182;52.896;6.496;2023-06-04T16:00:18;102197.59;;;19.54;100.00
20043;BME280;10182;52.896;6.496;2023-06-04T16:05:20;102200.53;;;19.21;100.00
20043;BME280;10182;52.896;6.496;2023-06-04T16:10:22;102194.13;;;19.23;100.00
20043;BME280;10182;52.896;6.496;2023-06-04T16:15:25;102184.91;;;18.97;100.00
20043;BME280;10182;52.896;6.496;2023-06-04T16:20:27;102189.72;;;18.92;100.00
20043;BME280;10182;52.896;6.496;2023-06-04T16:25:28;102186.66;;;18.98;100.00
20043;BME280;10182;52.896;6.496;2023-06-04T16:30:32;102186.28;;;19.49;100.00
20043;BME280;10182;52.896;6.496;2023-06-04T16:35:33;102179.44;;;20.16;98.67
20043;BME280;10182;52.896;6.496;2023-06-04T16:40:35;102180.56;;;21.85;81.33
20043;BME280;10182;52.896;6.496;2023-06-04T16:45:42;102172.94;;;22.16;72.52
20043;BME280;10182;52.896;6.496;2023-06-04T16:50:43;102172.84;;;22.66;68.35
20043;BME280;10182;52.896;6.496;2023-06-04T16:55:45;102187.47;;;21.63;71.90
20043;BME280;10182;52.896;6.496;2023-06-04T17:00:48;102194.34;;;19.64;100.00
20043;BME280;10182;52.896;6.496;2023-06-04T17:05:50;102183.03;;;18.21;100.00
20043;BME280;10182;52.896;6.496;2023-06-04T17:10:52;102177.16;;;17.47;100.00
20043;BME280;10182;52.896;6.496;2023-06-04T17:15:55;102179.94;;;17.28;100.00
20043;BME280;10182;52.896;6.496;2023-06-04T17:20:56;102180.25;;;17.04;100.00
20043;BME280;10182;52.896;6.496;2023-06-04T17:25:58;102180.84;;;16.94;100.00
20043;BME280;10182;52.896;6.496;2023-06-04T17:31:01;102184.84;;;16.66;100.00
20043;BME280;10182;52.896;6.496;2023-06-04T17:36:03;102171.22;;;16.53;100.00
20043;BME280;10182;52.896;6.496;2023-06-04T17:41:05;102180.41;;;16.47;100.00
20043;BME280;10182;52.896;6.496;2023-06-04T17:46:08;102181.56;;;16.41;100.00
20043;BME280;10182;52.896;6.496;2023-06-04T17:51:10;102188.03;;;16.18;100.00
20043;BME280;10182;52.896;6.496;2023-06-04T17:56:12;102192.31;;;16.03;100.00
20043;BME280;10182;52.896;6.496;2023-06-04T18:01:15;102194.91;;;16.05;100.00
20043;BME280;10182;52.896;6.496;2023-06-04T18:06:18;102204.13;;;15.77;100.00
20043;BME280;10182;52.896;6.496;2023-06-04T18:11:19;102204.06;;;15.60;100.00
20043;BME280;10182;52.896;6.496;2023-06-04T18:16:23;102210.25;;;15.60;100.00
20043;BME280;10182;52.896;6.496;2023-06-04T18:21:25;102204.19;;;15.36;100.00
20043;BME280;10182;52.896;6.496;2023-06-04T18:26:27;102202.34;;;15.17;100.00
20043;BME280;10182;52.896;6.496;2023-06-04T18:31:30;102209.28;;;15.21;100.00
20043;BME280;10182;52.896;6.496;2023-06-04T18:36:32;102211.34;;;15.15;100.00
20043;BME280;10182;52.896;6.496;2023-06-04T18:41:36;102212.50;;;15.07;100.00
20043;BME280;10182;52.896;6.496;2023-06-04T18:46:39;102206.84;;;14.95;100.00
20043;BME280;10182;52.896;6.496;2023-06-04T18:51:41;102209.09;;;14.83;100.00
20043;BME280;10182;52.896;6.496;2023-06-04T18:56:43;102203.75;;;14.61;100.00
20043;BME280;10182;52.896;6.496;2023-06-04T19:01:46;102202.78;;;14.40;100.00
20043;BME280;10182;52.896;6.496;2023-06-04T19:06:48;102209.88;;;14.41;100.00
20043;BME280;10182;52.896;6.496;2023-06-04T19:11:50;102212.53;;;14.17;100.00
20043;BME280;10182;52.896;6.496;2023-06-04T19:16:53;102216.50;;;14.07;100.00
20043;BME280;10182;52.896;6.496;2023-06-04T19:21:54;102224.84;;;13.98;100.00
20043;BME280;10182;52.896;6.496;2023-06-04T19:26:58;102227.59;;;13.71;100.00
20043;BME280;10182;52.896;6.496;2023-06-04T19:32:01;102231.50;;;13.61;100.00
20043;BME280;10182;52.896;6.496;2023-06-04T19:37:03;102223.06;;;13.49;100.00
20043;BME280;10182;52.896;6.496;2023-06-04T19:42:05;102229.56;;;13.41;100.00
20043;BME280;10182;52.896;6.496;2023-06-04T19:47:08;102237.13;;;13.26;100.00
20043;BME280;10182;52.896;6.496;2023-06-04T19:52:10;102247.81;;;13.25;100.00
20043;BME280;10182;52.896;6.496;2023-06-04T19:57:12;102239.59;;;13.06;100.00
20043;BME280;10182;52.896;6.496;2023-06-04T20:02:16;102242.84;;;12.87;100.00
20043;BME280;10182;52.896;6.496;2023-06-04T20:07:18;102248.72;;;12.70;100.00
20043;BME280;10182;52.896;6.496;2023-06-04T20:12:20;102252.22;;;12.70;100.00
20043;BME280;10182;52.896;6.496;2023-06-04T20:17:23;102256.63;;;12.43;100.00
20043;BME280;10182;52.896;6.496;2023-06-04T20:22:25;102259.47;;;12.37;100.00
20043;BME280;10182;52.896;6.496;2023-06-04T20:27:26;102271.38;;;12.24;100.00
20043;BME280;10182;52.896;6.496;2023-06-04T20:32:29;102271.66;;;12.14;100.00
20043;BME280;10182;52.896;6.496;2023-06-04T20:37:31;102280.56;;;12.12;100.00
20043;BME280;10182;52.896;6.496;2023-06-04T20:42:35;102280.63;;;12.10;100.00
20043;BME280;10182;52.896;6.496;2023-06-04T20:47:38;102289.03;;;11.95;100.00
20043;BME280;10182;52.896;6.496;2023-06-04T20:52:40;102285.03;;;11.78;100.00
20043;BME280;10182;52.896;6.496;2023-06-04T20:57:42;102290.34;;;11.77;100.00
20043;BME280;10182;52.896;6.496;2023-06-04T21:02:45;102292.31;;;11.70;100.00
20043;BME280;10182;52.896;6.496;2023-06-04T21:07:47;102289.06;;;11.59;100.00
20043;BME280;10182;52.896;6.496;2023-06-04T21:12:48;102299.84;;;11.52;100.00
20043;BME280;10182;52.896;6.496;2023-06-04T21:17:52;102287.63;;;11.45;100.00
20043;BME280;10182;52.896;6.496;2023-06-04T21:22:54;102294.97;;;11.35;100.00
20043;BME280;10182;52.896;6.496;2023-06-04T21:27:55;102293.56;;;11.21;100.00
20043;BME280;10182;52.896;6.496;2023-06-04T21:32:58;102302.59;;;11.13;100.00
20043;BME280;10182;52.896;6.496;2023-06-04T21:38:00;102295.78;;;11.01;100.00
20043;BME280;10182;52.896;6.496;2023-06-04T21:43:02;102297.53;;;11.03;100.00
20043;BME280;10182;52.896;6.496;2023-06-04T21:48:05;102298.72;;;10.91;100.00
20043;BME280;10182;52.896;6.496;2023-06-04T21:53:06;102298.75;;;10.88;100.00
20043;BME280;10182;52.896;6.496;2023-06-04T21:58:08;102299.00;;;10.77;100.00
20043;BME280;10182;52.896;6.496;2023-06-04T22:03:12;102294.56;;;10.79;100.00
20043;BME280;10182;52.896;6.496;2023-06-04T22:08:13;102301.13;;;10.62;100.00
20043;BME280;10182;52.896;6.496;2023-06-04T22:13:15;102308.22;;;10.60;100.00
20043;BME280;10182;52.896;6.496;2023-06-04T22:18:18;102308.31;;;10.56;100.00
20043;BME280;10182;52.896;6.496;2023-06-04T22:23:20;102308.44;;;10.49;100.00
20043;BME280;10182;52.896;6.496;2023-06-04T22:28:23;102309.41;;;10.45;100.00
20043;BME280;10182;52.896;6.496;2023-06-04T22:33:26;102299.03;;;10.35;100.00
20043;BME280;10182;52.896;6.496;2023-06-04T22:38:29;102296.44;;;10.31;100.00
20043;BME280;10182;52.896;6.496;2023-06-04T22:43:31;102298.47;;;10.19;100.00
20043;BME280;10182;52.896;6.496;2023-06-04T22:48:34;102301.16;;;10.17;100.00
20043;BME280;10182;52.896;6.496;2023-06-04T22:53:35;102296.66;;;10.21;100.00
20043;BME280;10182;52.896;6.496;2023-06-04T22:58:37;102294.19;;;10.11;100.00
20043;BME280;10182;52.896;6.496;2023-06-04T23:03:40;102300.41;;;10.10;100.00
20043;BME280;10182;52.896;6.496;2023-06-04T23:08:42;102305.97;;;9.96;100.00
20043;BME280;10182;52.896;6.496;2023-06-04T23:13:44;102307.06;;;9.85;100.00
20043;BME280;10182;52.896;6.496;2023-06-04T23:18:47;102312.44;;;9.80;100.00
20043;BME280;10182;52.896;6.496;2023-06-04T23:23:49;102314.28;;;9.76;100.00
20043;BME280;10182;52.896;6.496;2023-06-04T23:28:51;102324.78;;;9.81;100.00
20043;BME280;10182;52.896;6.496;2023-06-04T23:33:54;102320.50;;;9.74;100.00
20043;BME280;10182;52.896;6.496;2023-06-04T23:38:57;102330.31;;;9.67;100.00
20043;BME280;10182;52.896;6.496;2023-06-04T23:43:58;102330.31;;;9.67;100.00
20043;BME280;10182;52.896;6.496;2023-06-04T23:49:02;102325.09;;;9.64;100.00
20043;BME280;10182;52.896;6.496;2023-06-04T23:54:03;102325.97;;;9.63;100.00
20043;BME280;10182;52.896;6.496;2023-06-04T23:59:05;102322.50;;;9.59;100.00
